createdAt,value
2023-11-23T00:00:11.900Z,8.90
2023-11-23T00:02:42.317Z,8.30
2023-11-23T00:05:09.666Z,8.95
2023-11-23T00:07:36.806Z,8.90
2023-11-23T00:10:04.250Z,8.03
2023-11-23T00:12:31.277Z,7.60
2023-11-23T00:14:57.858Z,7.53
2023-11-23T00:17:24.402Z,8.17
2023-11-23T00:19:50.897Z,7.57
2023-11-23T00:22:17.695Z,8.10
2023-11-23T00:24:44.239Z,7.87
2023-11-23T00:27:10.803Z,8.07
2023-11-23T00:29:37.479Z,9.10
2023-11-23T00:32:04.816Z,8.20
2023-11-23T00:34:33.570Z,8.60
2023-11-23T00:37:00.683Z,8.50
2023-11-23T00:39:27.641Z,8.33
2023-11-23T00:41:56.901Z,8.33
2023-11-23T00:44:23.423Z,8.03
2023-11-23T00:46:50.066Z,8.85
2023-11-23T00:49:17.035Z,9.40
2023-11-23T00:51:43.666Z,8.90
2023-11-23T00:54:10.449Z,8.47
2023-11-23T00:56:38.187Z,7.60
2023-11-23T00:59:04.909Z,7.23
2023-11-23T01:01:33.603Z,7.70
2023-11-23T01:04:00.347Z,6.87
2023-11-23T01:06:26.844Z,6.57
2023-11-23T01:08:53.472Z,5.97
2023-11-23T01:11:19.972Z,6.77
2023-11-23T01:13:48.457Z,6.50
2023-11-23T01:16:15.239Z,6.67
2023-11-23T01:18:43.473Z,6.23
2023-11-23T01:21:10.373Z,6.17
2023-11-23T01:23:36.976Z,6.30
2023-11-23T01:26:03.817Z,5.75
2023-11-23T01:28:30.394Z,6.00
2023-11-23T01:30:56.943Z,6.20
2023-11-23T01:33:24.299Z,5.97
2023-11-23T01:35:51.504Z,5.43
2023-11-23T01:38:18.152Z,6.67
2023-11-23T01:40:44.692Z,5.93
2023-11-23T01:43:11.663Z,6.47
2023-11-23T01:45:39.615Z,6.50
2023-11-23T01:48:07.053Z,7.03
2023-11-23T01:50:35.526Z,6.30
2023-11-23T01:53:03.849Z,6.85
2023-11-23T01:55:30.411Z,6.93
2023-11-23T01:57:59.246Z,6.30
2023-11-23T02:00:26.364Z,7.20
2023-11-23T02:02:53.325Z,6.73
2023-11-23T02:05:22.985Z,6.70
2023-11-23T02:07:49.689Z,7.83
2023-11-23T02:10:16.318Z,7.40
2023-11-23T02:12:44.772Z,8.80
2023-11-23T02:15:11.781Z,8.43
2023-11-23T02:17:38.582Z,8.35
2023-11-23T02:20:10.003Z,7.93
2023-11-23T02:22:37.484Z,8.13
2023-11-23T02:25:07.513Z,7.40
2023-11-23T02:27:37.464Z,7.80
2023-11-23T02:30:07.006Z,7.25
2023-11-23T02:32:33.755Z,8.15
2023-11-23T02:35:00.379Z,7.67
2023-11-23T02:37:26.854Z,7.80
2023-11-23T02:39:53.411Z,7.77
2023-11-23T02:42:20.543Z,8.77
2023-11-23T02:44:47.196Z,8.48
2023-11-23T02:47:13.835Z,7.78
2023-11-23T02:49:40.774Z,7.40
2023-11-23T02:52:07.416Z,7.45
2023-11-23T02:54:34.013Z,7.13
2023-11-23T02:57:00.695Z,7.93
2023-11-23T02:59:27.285Z,8.13
2023-11-23T03:01:53.926Z,7.80
2023-11-23T03:04:20.562Z,8.30
2023-11-23T03:06:47.195Z,8.10
2023-11-23T03:09:14.149Z,9.20
2023-11-23T03:11:42.027Z,8.35
2023-11-23T03:14:09.626Z,8.98
2023-11-23T03:16:36.503Z,8.07
2023-11-23T03:19:03.253Z,8.18
2023-11-23T03:21:30.088Z,8.55
2023-11-23T03:23:57.434Z,7.90
2023-11-23T03:26:24.073Z,7.80
2023-11-23T03:28:50.530Z,8.88
2023-11-23T03:31:16.993Z,8.88
2023-11-23T03:33:43.575Z,7.93
2023-11-23T03:36:10.425Z,8.07
2023-11-23T03:38:38.262Z,8.07
2023-11-23T03:41:05.483Z,7.60
2023-11-23T03:43:32.055Z,7.82
2023-11-23T03:45:58.581Z,8.00
2023-11-23T03:48:25.296Z,7.68
2023-11-23T03:50:52.225Z,7.25
2023-11-23T03:53:18.786Z,7.18
2023-11-23T03:55:45.432Z,7.50
2023-11-23T03:58:17.740Z,8.07
2023-11-23T04:00:44.373Z,7.15
2023-11-23T04:03:10.975Z,7.10
2023-11-23T04:05:39.904Z,7.65
2023-11-23T04:08:06.846Z,7.20
2023-11-23T04:10:33.376Z,7.75
2023-11-23T04:13:03.324Z,7.30
2023-11-23T04:15:29.985Z,6.75
2023-11-23T04:17:56.810Z,7.68
2023-11-23T04:20:23.397Z,7.43
2023-11-23T04:22:49.990Z,7.70
2023-11-23T04:25:16.626Z,7.30
2023-11-23T04:27:43.177Z,7.50
2023-11-23T04:30:10.844Z,7.20
2023-11-23T04:32:37.633Z,7.30
2023-11-23T04:35:04.536Z,7.10
2023-11-23T04:37:31.095Z,7.20
2023-11-23T04:39:57.596Z,7.60
2023-11-23T04:42:24.256Z,7.35
2023-11-23T04:44:50.860Z,7.47
2023-11-23T04:47:17.453Z,6.97
2023-11-23T04:49:44.316Z,7.50
2023-11-23T04:52:11.114Z,7.15
2023-11-23T04:54:40.086Z,6.90
2023-11-23T04:57:08.636Z,7.20
2023-11-23T04:59:35.634Z,6.97
2023-11-23T05:02:02.295Z,7.15
2023-11-23T05:04:28.942Z,7.13
2023-11-23T05:06:57.151Z,7.65
2023-11-23T05:09:24.008Z,7.57
2023-11-23T05:11:50.849Z,8.10
2023-11-23T05:14:18.154Z,7.82
2023-11-23T05:16:44.744Z,9.00
2023-11-23T05:19:11.244Z,7.95
2023-11-23T05:21:37.927Z,8.52
2023-11-23T05:24:05.846Z,8.43
2023-11-23T05:26:32.552Z,7.88
2023-11-23T05:28:59.023Z,7.68
2023-11-23T05:31:25.546Z,7.63
2023-11-23T05:33:52.297Z,7.30
2023-11-23T05:36:19.862Z,7.65
2023-11-23T05:38:46.494Z,7.95
2023-11-23T05:41:13.085Z,7.90
2023-11-23T05:43:39.624Z,7.78
2023-11-23T05:46:06.248Z,8.57
2023-11-23T05:48:32.817Z,7.53
2023-11-23T05:51:02.374Z,8.52
2023-11-23T05:53:28.942Z,9.05
2023-11-23T05:55:55.666Z,8.30
2023-11-23T05:58:22.175Z,9.23
2023-11-23T06:00:59.959Z,9.15
2023-11-23T06:03:34.223Z,9.30
2023-11-23T06:06:00.965Z,8.85
2023-11-23T06:08:30.617Z,8.20
2023-11-23T06:11:00.218Z,8.48
2023-11-23T06:13:29.097Z,8.68
2023-11-23T06:15:55.617Z,8.00
2023-11-23T06:18:22.776Z,8.23
2023-11-23T06:20:49.869Z,8.93
2023-11-23T06:23:16.574Z,8.32
2023-11-23T06:25:43.077Z,8.60
2023-11-23T06:28:15.157Z,8.38
2023-11-23T06:30:46.195Z,9.20
2023-11-23T06:33:13.327Z,8.75
2023-11-23T06:35:40.302Z,9.52
2023-11-23T06:38:06.989Z,9.15
2023-11-23T06:40:35.699Z,9.18
2023-11-23T06:43:03.516Z,10.95
2023-11-23T06:45:30.785Z,10.02
2023-11-23T06:47:57.469Z,9.98
2023-11-23T06:50:24.150Z,10.18
2023-11-23T06:52:50.767Z,11.02
2023-11-23T06:55:17.367Z,9.82
2023-11-23T06:57:53.300Z,10.20
2023-11-23T07:00:23.793Z,9.63
2023-11-23T07:02:56.610Z,10.00
2023-11-23T07:05:25.155Z,10.05
2023-11-23T07:07:52.780Z,10.10
2023-11-23T07:10:20.760Z,10.98
2023-11-23T07:12:51.566Z,10.10
2023-11-23T07:15:19.452Z,10.15
2023-11-23T07:17:47.770Z,11.15
2023-11-23T07:20:15.802Z,11.20
2023-11-23T07:22:42.605Z,12.40
2023-11-23T07:25:12.338Z,11.48
2023-11-23T07:27:39.416Z,11.70
2023-11-23T07:30:10.217Z,12.60
2023-11-23T07:32:37.669Z,12.23
2023-11-23T07:35:05.409Z,10.50
2023-11-23T07:37:32.435Z,11.00
2023-11-23T07:39:59.030Z,10.88
2023-11-23T07:42:26.799Z,9.98
2023-11-23T07:44:53.849Z,10.23
2023-11-23T07:47:21.090Z,11.30
2023-11-23T07:49:52.081Z,11.80
2023-11-23T07:52:18.549Z,10.73
2023-11-23T07:54:45.302Z,10.25
2023-11-23T07:57:12.320Z,10.85
2023-11-23T07:59:40.111Z,11.30
2023-11-23T08:02:06.996Z,10.80
2023-11-23T08:04:33.605Z,10.88
2023-11-23T08:07:00.469Z,11.05
2023-11-23T08:09:27.334Z,10.73
2023-11-23T08:11:54.122Z,11.05
2023-11-23T08:14:21.507Z,10.68
2023-11-23T08:16:48.335Z,11.13
2023-11-23T08:19:15.504Z,10.63
2023-11-23T08:21:42.983Z,10.85
2023-11-23T08:24:11.133Z,11.05
2023-11-23T08:26:37.952Z,11.63
2023-11-23T08:29:06.309Z,11.02
2023-11-23T08:31:33.020Z,12.15
2023-11-23T08:33:59.734Z,11.35
2023-11-23T08:36:26.465Z,11.93
2023-11-23T08:38:53.100Z,12.45
2023-11-23T08:41:19.804Z,11.95
2023-11-23T08:43:48.621Z,11.35
2023-11-23T08:46:15.536Z,11.02
2023-11-23T08:48:42.801Z,11.35
2023-11-23T08:51:09.452Z,11.35
2023-11-23T08:53:36.064Z,10.20
2023-11-23T08:56:02.849Z,11.25
2023-11-23T08:58:29.535Z,11.18
2023-11-23T09:00:56.104Z,11.25
2023-11-23T09:03:22.737Z,11.57
2023-11-23T09:05:49.590Z,12.20
2023-11-23T09:08:16.177Z,11.60
2023-11-23T09:10:45.222Z,10.55
2023-11-23T09:13:11.768Z,10.68
2023-11-23T09:15:38.378Z,12.38
2023-11-23T09:18:05.263Z,11.45
2023-11-23T09:20:32.584Z,11.48
2023-11-23T09:22:59.160Z,12.48
2023-11-23T09:25:26.138Z,11.85
2023-11-23T09:27:52.688Z,11.65
2023-11-23T09:30:19.327Z,12.45
2023-11-23T09:32:45.950Z,12.65
2023-11-23T09:35:12.554Z,11.90
2023-11-23T09:37:39.330Z,12.48
2023-11-23T09:40:11.341Z,12.40
2023-11-23T09:42:39.757Z,12.50
2023-11-23T09:45:08.230Z,11.13
2023-11-23T09:47:36.406Z,11.73
2023-11-23T09:50:04.314Z,12.15
2023-11-23T09:52:31.513Z,12.57
2023-11-23T09:54:58.778Z,13.20
2023-11-23T09:57:25.508Z,12.55
2023-11-23T09:59:52.068Z,12.98
2023-11-23T10:02:21.766Z,12.75
2023-11-23T10:04:51.312Z,12.88
2023-11-23T10:07:17.933Z,12.50
2023-11-23T10:09:44.723Z,13.68
2023-11-23T10:12:11.794Z,12.07
2023-11-23T10:14:40.692Z,11.20
2023-11-23T10:17:08.102Z,12.02
2023-11-23T10:19:34.668Z,11.88
2023-11-23T10:22:04.414Z,12.18
2023-11-23T10:24:32.025Z,12.75
2023-11-23T10:26:59.696Z,12.82
2023-11-23T10:29:39.602Z,13.18
2023-11-23T10:32:15.836Z,13.27
2023-11-23T10:34:43.141Z,12.25
2023-11-23T10:37:14.837Z,12.07
2023-11-23T10:39:41.525Z,13.30
2023-11-23T10:42:08.130Z,12.82
2023-11-23T10:44:35.084Z,13.50
2023-11-23T10:47:05.084Z,13.13
2023-11-23T10:49:35.058Z,14.02
2023-11-23T10:52:01.550Z,13.13
2023-11-23T10:54:33.628Z,12.93
2023-11-23T10:57:05.059Z,13.70
2023-11-23T10:59:38.861Z,13.73
2023-11-23T11:02:08.470Z,13.80
2023-11-23T11:04:35.472Z,13.90
2023-11-23T11:07:05.283Z,14.32
2023-11-23T11:09:34.504Z,13.88
2023-11-23T11:12:03.536Z,13.40
2023-11-23T11:14:37.532Z,14.35
2023-11-23T11:17:07.917Z,13.68
2023-11-23T11:19:47.145Z,13.70
2023-11-23T11:22:14.786Z,14.13
2023-11-23T11:24:50.636Z,14.10
2023-11-23T11:27:20.832Z,14.82
2023-11-23T11:29:53.848Z,13.60
2023-11-23T11:32:21.954Z,13.48
2023-11-23T11:34:48.667Z,13.55
2023-11-23T11:37:15.832Z,14.13
2023-11-23T11:39:45.284Z,12.48
2023-11-23T11:42:12.277Z,13.10
2023-11-23T11:44:49.764Z,13.40
2023-11-23T11:47:18.308Z,12.32
2023-11-23T11:49:45.058Z,13.88
2023-11-23T11:52:13.460Z,12.50
2023-11-23T11:54:40.331Z,13.23
2023-11-23T11:57:06.998Z,12.48
2023-11-23T11:59:37.230Z,12.48
2023-11-23T12:02:13.028Z,14.32
2023-11-23T12:04:40.703Z,13.38
2023-11-23T12:07:15.533Z,12.80
2023-11-23T12:09:46.617Z,11.77
2023-11-23T12:12:14.369Z,12.00
2023-11-23T12:14:41.005Z,12.38
2023-11-23T12:17:11.900Z,12.13
2023-11-23T12:19:50.273Z,12.73
2023-11-23T12:22:24.530Z,12.48
2023-11-23T12:24:52.401Z,12.63
2023-11-23T12:27:21.562Z,12.57
2023-11-23T12:29:48.389Z,12.70
2023-11-23T12:32:15.036Z,13.55
2023-11-23T12:34:41.617Z,13.18
2023-11-23T12:37:08.285Z,12.75
2023-11-23T12:39:35.093Z,14.70
2023-11-23T12:42:01.748Z,13.43
2023-11-23T12:44:28.451Z,12.65
2023-11-23T12:46:58.009Z,13.63
2023-11-23T12:49:24.551Z,14.98
2023-11-23T12:51:53.056Z,14.02
2023-11-23T12:54:19.716Z,15.00
2023-11-23T12:56:46.427Z,15.30
2023-11-23T12:59:13.072Z,13.82
2023-11-23T13:01:40.740Z,14.73
2023-11-23T13:04:09.701Z,14.48
2023-11-23T13:06:37.584Z,15.18
2023-11-23T13:09:05.396Z,14.82
2023-11-23T13:11:32.740Z,13.50
2023-11-23T13:13:59.557Z,14.77
2023-11-23T13:16:26.233Z,14.32
2023-11-23T13:19:06.470Z,14.07
2023-11-23T13:21:39.960Z,14.43
2023-11-23T13:24:08.014Z,13.88
2023-11-23T13:26:34.751Z,14.98
2023-11-23T13:29:01.260Z,14.43
2023-11-23T13:31:28.835Z,13.95
2023-11-23T13:33:56.394Z,15.05
2023-11-23T13:36:23.944Z,14.13
2023-11-23T13:38:51.607Z,17.23
2023-11-23T13:41:19.832Z,15.95
2023-11-23T13:43:48.156Z,14.80
2023-11-23T13:46:19.963Z,15.07
2023-11-23T13:48:51.346Z,14.18
2023-11-23T13:51:19.253Z,14.93
2023-11-23T13:53:46.206Z,14.43
2023-11-23T13:56:16.042Z,15.00
2023-11-23T13:58:43.071Z,14.18
2023-11-23T14:01:12.538Z,14.27
2023-11-23T14:03:39.515Z,14.57
2023-11-23T14:06:07.582Z,16.02
2023-11-23T14:08:35.139Z,16.70
2023-11-23T14:11:02.306Z,14.90
2023-11-23T14:13:29.206Z,15.10
2023-11-23T14:15:55.920Z,15.98
2023-11-23T14:18:22.803Z,14.30
2023-11-23T14:20:50.862Z,14.25
2023-11-23T14:23:18.536Z,14.60
2023-11-23T14:25:45.205Z,14.43
2023-11-23T14:28:16.281Z,13.48
2023-11-23T14:30:46.835Z,13.60
2023-11-23T14:33:14.698Z,14.10
2023-11-23T14:35:42.580Z,13.25
2023-11-23T14:38:12.131Z,12.82
2023-11-23T14:40:40.737Z,14.00
2023-11-23T14:43:08.778Z,13.40
2023-11-23T14:45:37.009Z,12.80
2023-11-23T14:48:04.982Z,14.73
2023-11-23T14:50:31.844Z,14.05
2023-11-23T14:52:59.754Z,14.40
2023-11-23T14:55:26.708Z,13.80
2023-11-23T14:57:53.294Z,13.90
2023-11-23T15:00:20.144Z,14.32
2023-11-23T15:02:47.102Z,13.10
2023-11-23T15:05:14.216Z,14.75
2023-11-23T15:07:43.543Z,13.60
2023-11-23T15:10:13.134Z,13.98
2023-11-23T15:12:41.219Z,13.60
2023-11-23T15:15:09.536Z,14.27
2023-11-23T15:17:37.520Z,14.25
2023-11-23T15:20:07.463Z,15.43
2023-11-23T15:22:34.838Z,14.38
2023-11-23T15:25:09.879Z,14.68
2023-11-23T15:27:37.631Z,15.68
2023-11-23T15:30:06.026Z,14.68
2023-11-23T15:32:38.485Z,14.73
2023-11-23T15:35:08.959Z,14.23
2023-11-23T15:37:37.263Z,14.05
2023-11-23T15:40:06.375Z,14.80
2023-11-23T15:42:34.174Z,13.88
2023-11-23T15:45:00.670Z,13.88
2023-11-23T15:47:27.187Z,15.13
2023-11-23T15:49:53.684Z,15.30
2023-11-23T15:52:21.466Z,14.43
2023-11-23T15:54:48.178Z,14.77
2023-11-23T15:57:17.631Z,14.23
2023-11-23T15:59:44.212Z,15.60
2023-11-23T16:02:12.330Z,15.95
2023-11-23T16:04:39.165Z,14.63
2023-11-23T16:07:05.625Z,14.15
2023-11-23T16:09:32.124Z,15.60
2023-11-23T16:11:59.065Z,17.83
2023-11-23T16:14:25.531Z,17.13
2023-11-23T16:16:52.162Z,17.15
2023-11-23T16:19:18.730Z,15.38
2023-11-23T16:21:45.200Z,15.65
2023-11-23T16:24:12.054Z,15.77
2023-11-23T16:26:38.745Z,17.77
2023-11-23T16:29:11.024Z,16.33
2023-11-23T16:31:43.203Z,16.30
2023-11-23T16:34:12.712Z,15.93
2023-11-23T16:36:40.800Z,15.23
2023-11-23T16:39:08.476Z,16.52
2023-11-23T16:41:35.276Z,16.00
2023-11-23T16:44:02.030Z,16.80
2023-11-23T16:46:28.501Z,15.73
2023-11-23T16:48:55.860Z,17.00
2023-11-23T16:51:25.375Z,16.15
2023-11-23T16:53:54.675Z,16.23
2023-11-23T16:56:22.217Z,16.48
2023-11-23T16:58:48.719Z,15.52
2023-11-23T17:01:15.253Z,15.10
2023-11-23T17:03:41.769Z,18.38
2023-11-23T17:06:08.750Z,17.30
2023-11-23T17:08:35.404Z,16.77
2023-11-23T17:11:01.943Z,16.33
2023-11-23T17:13:28.411Z,16.45
2023-11-23T17:15:54.852Z,14.80
2023-11-23T17:18:21.630Z,15.18
2023-11-23T17:20:48.171Z,14.50
2023-11-23T17:23:16.181Z,15.07
2023-11-23T17:25:43.230Z,13.95
2023-11-23T17:28:12.076Z,15.10
2023-11-23T17:30:43.016Z,14.75
2023-11-23T17:33:12.509Z,15.38
2023-11-23T17:35:39.373Z,15.50
2023-11-23T17:38:07.251Z,14.63
2023-11-23T17:40:34.537Z,15.07
2023-11-23T17:43:00.993Z,15.05
2023-11-23T17:45:27.527Z,14.82
2023-11-23T17:47:54.124Z,16.60
2023-11-23T17:50:20.963Z,14.40
2023-11-23T17:52:48.358Z,14.00
2023-11-23T17:55:15.347Z,15.13
2023-11-23T17:57:41.861Z,15.43
2023-11-23T18:00:13.468Z,15.35
2023-11-23T18:02:44.030Z,16.17
2023-11-23T18:05:13.040Z,15.27
2023-11-23T18:07:39.496Z,16.42
2023-11-23T18:10:06.878Z,16.77
2023-11-23T18:12:53.293Z,16.15
2023-11-23T18:15:19.994Z,15.38
2023-11-23T18:17:46.485Z,16.30
2023-11-23T18:20:14.673Z,15.70
2023-11-23T18:22:41.229Z,17.02
2023-11-23T18:25:08.059Z,17.33
2023-11-23T18:27:35.209Z,18.30
2023-11-23T18:30:01.709Z,19.52
2023-11-23T18:32:30.122Z,17.35
2023-11-23T18:34:56.657Z,17.10
2023-11-23T18:37:23.843Z,18.60
2023-11-23T18:39:50.408Z,16.73
2023-11-23T18:42:17.056Z,16.40
2023-11-23T18:44:43.651Z,16.30
2023-11-23T18:47:10.254Z,15.52
2023-11-23T18:49:37.257Z,15.63
2023-11-23T18:52:04.119Z,16.33
2023-11-23T18:54:30.743Z,15.80
2023-11-23T18:56:57.279Z,15.80
2023-11-23T18:59:25.278Z,14.73
2023-11-23T19:01:54.885Z,14.30
2023-11-23T19:04:21.919Z,15.80
2023-11-23T19:06:50.546Z,15.18
2023-11-23T19:09:17.986Z,15.15
2023-11-23T19:11:44.438Z,14.85
2023-11-23T19:14:10.987Z,15.20
2023-11-23T19:16:37.488Z,16.33
2023-11-23T19:19:04.192Z,14.13
2023-11-23T19:21:31.738Z,14.45
2023-11-23T19:23:58.840Z,14.45
2023-11-23T19:26:26.927Z,14.45
2023-11-23T19:28:55.401Z,15.10
2023-11-23T19:31:22.092Z,14.80
2023-11-23T19:33:48.774Z,13.63
2023-11-23T19:36:15.622Z,15.07
2023-11-23T19:38:42.346Z,14.85
2023-11-23T19:41:10.417Z,14.52
2023-11-23T19:43:37.710Z,15.45
2023-11-23T19:46:04.985Z,16.02
2023-11-23T19:48:31.881Z,15.55
2023-11-23T19:50:59.222Z,15.63
2023-11-23T19:53:29.783Z,16.23
2023-11-23T19:55:56.311Z,15.02
2023-11-23T19:58:22.944Z,16.23
2023-11-23T20:00:50.740Z,16.52
2023-11-23T20:03:17.227Z,17.02
2023-11-23T20:05:44.026Z,16.75
2023-11-23T20:08:13.486Z,17.08
2023-11-23T20:10:43.438Z,17.23
2023-11-23T20:13:11.661Z,17.10
2023-11-23T20:15:38.207Z,17.27
2023-11-23T20:18:04.788Z,16.80
2023-11-23T20:20:31.652Z,16.52
2023-11-23T20:22:58.501Z,17.58
2023-11-23T20:25:25.966Z,17.38
2023-11-23T20:27:52.830Z,17.42
2023-11-23T20:30:19.517Z,19.10
2023-11-23T20:32:47.374Z,17.92
2023-11-23T20:35:13.940Z,16.15
2023-11-23T20:37:40.595Z,16.90
2023-11-23T20:40:09.066Z,16.42
2023-11-23T20:42:35.601Z,17.13
2023-11-23T20:45:02.164Z,17.25
2023-11-23T20:47:28.726Z,17.63
2023-11-23T20:49:55.201Z,17.45
2023-11-23T20:52:22.720Z,17.20
2023-11-23T20:54:50.020Z,17.23
2023-11-23T20:57:16.953Z,16.73
2023-11-23T20:59:44.509Z,16.85
2023-11-23T21:02:11.514Z,17.73
2023-11-23T21:04:40.023Z,18.48
2023-11-23T21:07:08.612Z,17.58
2023-11-23T21:09:35.586Z,18.63
2023-11-23T21:12:03.350Z,18.10
2023-11-23T21:14:31.656Z,17.92
2023-11-23T21:17:01.300Z,18.30
2023-11-23T21:19:28.066Z,17.48
2023-11-23T21:21:55.449Z,17.10
2023-11-23T21:24:21.927Z,18.58
2023-11-23T21:26:48.644Z,17.20
2023-11-23T21:29:15.145Z,17.05
2023-11-23T21:31:41.719Z,18.48
2023-11-23T21:34:08.319Z,18.92
2023-11-23T21:36:35.895Z,18.15
2023-11-23T21:39:02.781Z,19.35
2023-11-23T21:41:29.965Z,22.35
2023-11-23T21:43:56.905Z,21.20
2023-11-23T21:46:25.336Z,19.75
2023-11-23T21:48:52.257Z,20.15
2023-11-23T21:51:28.030Z,18.90
2023-11-23T21:53:55.419Z,19.80
2023-11-23T21:56:21.976Z,18.73
2023-11-23T21:58:48.554Z,18.58
2023-11-23T22:01:15.169Z,19.02
2023-11-23T22:03:41.918Z,19.95
2023-11-23T22:06:09.863Z,18.35
2023-11-23T22:08:36.478Z,17.52
2023-11-23T22:11:03.442Z,16.55
2023-11-23T22:13:29.937Z,17.05
2023-11-23T22:15:56.485Z,17.90
2023-11-23T22:18:23.519Z,17.40
2023-11-23T22:20:50.238Z,17.80
2023-11-23T22:23:16.980Z,18.52
2023-11-23T22:25:43.753Z,18.45
2023-11-23T22:28:10.531Z,16.73
2023-11-23T22:30:40.567Z,16.83
2023-11-23T22:33:08.061Z,16.30
2023-11-23T22:35:34.950Z,15.88
2023-11-23T22:38:06.599Z,15.40
2023-11-23T22:40:35.058Z,15.55
2023-11-23T22:43:01.710Z,15.98
2023-11-23T22:45:28.562Z,14.80
2023-11-23T22:47:55.204Z,14.10
2023-11-23T22:50:21.817Z,13.82
2023-11-23T22:52:48.306Z,13.15
2023-11-23T22:55:14.785Z,13.18
2023-11-23T22:57:42.482Z,12.23
2023-11-23T23:00:11.797Z,11.10
2023-11-23T23:02:39.214Z,10.43
2023-11-23T23:05:06.447Z,9.90
2023-11-23T23:07:34.785Z,9.05
2023-11-23T23:10:01.454Z,10.30
2023-11-23T23:12:28.162Z,9.68
2023-11-23T23:14:54.640Z,9.55
2023-11-23T23:17:21.074Z,9.43
2023-11-23T23:19:47.596Z,9.75
2023-11-23T23:22:24.221Z,9.40
2023-11-23T23:24:55.205Z,9.73
2023-11-23T23:27:21.785Z,9.18
2023-11-23T23:29:48.247Z,9.75
2023-11-23T23:32:14.728Z,9.27
2023-11-23T23:34:41.324Z,9.27
2023-11-23T23:37:08.410Z,8.93
2023-11-23T23:39:34.966Z,9.13
2023-11-23T23:42:01.595Z,9.25
2023-11-23T23:44:28.085Z,9.10
2023-11-23T23:46:56.738Z,9.68
2023-11-23T23:49:23.495Z,8.88
2023-11-23T23:51:51.592Z,9.73
2023-11-23T23:54:19.915Z,9.65
2023-11-23T23:56:46.895Z,9.32
2023-11-23T23:59:13.512Z,9.30
